sensor_id;sensor_type;location;lat;lon;timestamp;P1;durP1;ratioP1;P2;durP2;ratioP2
63492;SDS011;49638;47.526;10.028;2022-07-23T00:02:29;13.50;;;11.00;;
63492;SDS011;49638;47.526;10.028;2022-07-23T00:05:29;15.57;;;12.38;;
63492;SDS011;49638;47.526;10.028;2022-07-23T00:08:29;15.57;;;11.95;;
63492;SDS011;49638;47.526;10.028;2022-07-23T00:11:30;13.15;;;9.50;;
63492;SDS011;49638;47.526;10.028;2022-07-23T00:14:30;13.00;;;9.80;;
63492;SDS011;49638;47.526;10.028;2022-07-23T00:17:30;11.25;;;9.77;;
63492;SDS011;49638;47.526;10.028;2022-07-23T00:20:31;12.18;;;9.98;;
63492;SDS011;49638;47.526;10.028;2022-07-23T00:23:31;12.43;;;10.23;;
63492;SDS011;49638;47.526;10.028;2022-07-23T00:26:31;16.77;;;10.68;;
63492;SDS011;49638;47.526;10.028;2022-07-23T00:29:32;12.85;;;10.45;;
63492;SDS011;49638;47.526;10.028;2022-07-23T00:32:32;13.27;;;10.60;;
63492;SDS011;49638;47.526;10.028;2022-07-23T00:35:44;14.55;;;10.05;;
63492;SDS011;49638;47.526;10.028;2022-07-23T00:38:44;11.95;;;10.65;;
63492;SDS011;49638;47.526;10.028;2022-07-23T00:41:44;12.07;;;10.48;;
63492;SDS011;49638;47.526;10.028;2022-07-23T00:44:45;12.27;;;10.05;;
63492;SDS011;49638;47.526;10.028;2022-07-23T00:47:47;11.60;;;9.63;;
63492;SDS011;49638;47.526;10.028;2022-07-23T00:50:47;11.88;;;9.98;;
63492;SDS011;49638;47.526;10.028;2022-07-23T00:53:48;10.85;;;8.85;;
63492;SDS011;49638;47.526;10.028;2022-07-23T00:56:48;11.05;;;9.13;;
63492;SDS011;49638;47.526;10.028;2022-07-23T00:59:49;13.57;;;9.25;;
63492;SDS011;49638;47.526;10.028;2022-07-23T01:02:49;13.70;;;9.63;;
63492;SDS011;49638;47.526;10.028;2022-07-23T01:05:50;14.73;;;10.35;;
63492;SDS011;49638;47.526;10.028;2022-07-23T01:08:50;17.48;;;10.48;;
63492;SDS011;49638;47.526;10.028;2022-07-23T01:11:51;17.33;;;11.27;;
63492;SDS011;49638;47.526;10.028;2022-07-23T01:14:58;16.77;;;11.48;;
63492;SDS011;49638;47.526;10.028;2022-07-23T01:17:59;16.25;;;10.95;;
63492;SDS011;49638;47.526;10.028;2022-07-23T01:21:00;14.05;;;10.85;;
63492;SDS011;49638;47.526;10.028;2022-07-23T01:24:00;19.45;;;9.93;;
63492;SDS011;49638;47.526;10.028;2022-07-23T01:27:01;15.43;;;11.10;;
63492;SDS011;49638;47.526;10.028;2022-07-23T01:30:01;12.70;;;9.27;;
63492;SDS011;49638;47.526;10.028;2022-07-23T01:33:02;16.30;;;10.40;;
63492;SDS011;49638;47.526;10.028;2022-07-23T01:36:04;15.63;;;10.85;;
63492;SDS011;49638;47.526;10.028;2022-07-23T01:39:05;16.15;;;11.60;;
63492;SDS011;49638;47.526;10.028;2022-07-23T01:42:06;13.40;;;10.43;;
63492;SDS011;49638;47.526;10.028;2022-07-23T01:45:06;13.25;;;10.90;;
63492;SDS011;49638;47.526;10.028;2022-07-23T01:48:07;15.45;;;11.73;;
63492;SDS011;49638;47.526;10.028;2022-07-23T01:51:07;14.43;;;11.52;;
63492;SDS011;49638;47.526;10.028;2022-07-23T01:54:08;13.75;;;10.85;;
63492;SDS011;49638;47.526;10.028;2022-07-23T01:57:08;14.15;;;10.88;;
63492;SDS011;49638;47.526;10.028;2022-07-23T02:00:08;14.55;;;10.55;;
63492;SDS011;49638;47.526;10.028;2022-07-23T02:03:09;12.63;;;10.27;;
63492;SDS011;49638;47.526;10.028;2022-07-23T02:06:09;13.27;;;9.75;;
63492;SDS011;49638;47.526;10.028;2022-07-23T02:09:10;13.65;;;10.88;;
63492;SDS011;49638;47.526;10.028;2022-07-23T02:12:10;15.18;;;11.02;;
63492;SDS011;49638;47.526;10.028;2022-07-23T02:15:11;11.40;;;9.40;;
63492;SDS011;49638;47.526;10.028;2022-07-23T02:18:11;10.27;;;8.55;;
63492;SDS011;49638;47.526;10.028;2022-07-23T02:21:11;9.57;;;7.97;;
63492;SDS011;49638;47.526;10.028;2022-07-23T02:24:12;9.10;;;7.75;;
63492;SDS011;49638;47.526;10.028;2022-07-23T02:27:12;7.97;;;7.00;;
63492;SDS011;49638;47.526;10.028;2022-07-23T02:30:12;7.93;;;7.13;;
63492;SDS011;49638;47.526;10.028;2022-07-23T02:33:13;7.07;;;6.35;;
63492;SDS011;49638;47.526;10.028;2022-07-23T02:36:13;9.60;;;6.85;;
63492;SDS011;49638;47.526;10.028;2022-07-23T02:39:13;7.60;;;6.78;;
63492;SDS011;49638;47.526;10.028;2022-07-23T02:42:14;9.80;;;7.00;;
63492;SDS011;49638;47.526;10.028;2022-07-23T02:45:15;11.20;;;7.03;;
63492;SDS011;49638;47.526;10.028;2022-07-23T02:48:15;8.65;;;7.47;;
63492;SDS011;49638;47.526;10.028;2022-07-23T02:51:16;9.23;;;7.80;;
63492;SDS011;49638;47.526;10.028;2022-07-23T02:54:16;11.48;;;8.20;;
63492;SDS011;49638;47.526;10.028;2022-07-23T02:57:17;10.52;;;8.05;;
63492;SDS011;49638;47.526;10.028;2022-07-23T03:00:17;8.75;;;7.82;;
63492;SDS011;49638;47.526;10.028;2022-07-23T03:03:18;11.27;;;8.30;;
63492;SDS011;49638;47.526;10.028;2022-07-23T03:06:18;10.25;;;8.73;;
63492;SDS011;49638;47.526;10.028;2022-07-23T03:09:18;10.70;;;9.00;;
63492;SDS011;49638;47.526;10.028;2022-07-23T03:12:18;11.75;;;9.45;;
63492;SDS011;49638;47.526;10.028;2022-07-23T03:15:19;10.73;;;9.00;;
63492;SDS011;49638;47.526;10.028;2022-07-23T03:18:19;10.23;;;8.30;;
63492;SDS011;49638;47.526;10.028;2022-07-23T03:21:19;11.82;;;8.65;;
63492;SDS011;49638;47.526;10.028;2022-07-23T03:24:20;14.57;;;9.70;;
63492;SDS011;49638;47.526;10.028;2022-07-23T03:27:24;12.55;;;9.90;;
63492;SDS011;49638;47.526;10.028;2022-07-23T03:30:25;13.45;;;9.90;;
63492;SDS011;49638;47.526;10.028;2022-07-23T03:33:25;11.35;;;9.27;;
63492;SDS011;49638;47.526;10.028;2022-07-23T03:36:26;13.60;;;10.18;;
63492;SDS011;49638;47.526;10.028;2022-07-23T03:39:26;12.18;;;9.75;;
63492;SDS011;49638;47.526;10.028;2022-07-23T03:42:27;10.75;;;9.05;;
63492;SDS011;49638;47.526;10.028;2022-07-23T03:45:27;11.77;;;9.52;;
63492;SDS011;49638;47.526;10.028;2022-07-23T03:48:28;10.38;;;9.18;;
63492;SDS011;49638;47.526;10.028;2022-07-23T03:51:28;11.10;;;8.93;;
63492;SDS011;49638;47.526;10.028;2022-07-23T03:54:28;9.82;;;8.48;;
63492;SDS011;49638;47.526;10.028;2022-07-23T03:57:29;11.27;;;8.80;;
63492;SDS011;49638;47.526;10.028;2022-07-23T04:00:30;10.00;;;8.80;;
63492;SDS011;49638;47.526;10.028;2022-07-23T04:03:30;12.10;;;8.73;;
63492;SDS011;49638;47.526;10.028;2022-07-23T04:06:30;9.63;;;8.55;;
63492;SDS011;49638;47.526;10.028;2022-07-23T04:09:30;13.02;;;9.13;;
63492;SDS011;49638;47.526;10.028;2022-07-23T04:12:31;11.38;;;9.43;;
63492;SDS011;49638;47.526;10.028;2022-07-23T04:15:31;13.85;;;10.13;;
63492;SDS011;49638;47.526;10.028;2022-07-23T04:18:31;12.75;;;9.35;;
63492;SDS011;49638;47.526;10.028;2022-07-23T04:21:32;12.38;;;9.77;;
63492;SDS011;49638;47.526;10.028;2022-07-23T04:24:32;10.13;;;8.85;;
63492;SDS011;49638;47.526;10.028;2022-07-23T04:27:32;13.40;;;9.27;;
63492;SDS011;49638;47.526;10.028;2022-07-23T04:30:33;12.40;;;9.43;;
63492;SDS011;49638;47.526;10.028;2022-07-23T04:33:33;12.27;;;9.82;;
63492;SDS011;49638;47.526;10.028;2022-07-23T04:36:34;14.77;;;10.75;;
63492;SDS011;49638;47.526;10.028;2022-07-23T04:39:34;11.10;;;9.27;;
63492;SDS011;49638;47.526;10.028;2022-07-23T04:42:34;12.05;;;9.68;;
63492;SDS011;49638;47.526;10.028;2022-07-23T04:45:34;15.75;;;10.55;;
63492;SDS011;49638;47.526;10.028;2022-07-23T04:48:35;13.05;;;10.32;;
63492;SDS011;49638;47.526;10.028;2022-07-23T04:51:35;13.38;;;10.65;;
63492;SDS011;49638;47.526;10.028;2022-07-23T04:54:36;12.57;;;10.95;;
63492;SDS011;49638;47.526;10.028;2022-07-23T04:57:36;12.85;;;10.38;;
63492;SDS011;49638;47.526;10.028;2022-07-23T05:00:36;13.35;;;10.23;;
63492;SDS011;49638;47.526;10.028;2022-07-23T05:03:36;13.50;;;10.70;;
63492;SDS011;49638;47.526;10.028;2022-07-23T05:06:37;13.70;;;9.98;;
63492;SDS011;49638;47.526;10.028;2022-07-23T05:09:37;14.13;;;9.63;;
63492;SDS011;49638;47.526;10.028;2022-07-23T05:12:37;13.07;;;10.07;;
63492;SDS011;49638;47.526;10.028;2022-07-23T05:15:37;11.38;;;8.18;;
63492;SDS011;49638;47.526;10.028;2022-07-23T05:18:38;12.55;;;8.20;;
63492;SDS011;49638;47.526;10.028;2022-07-23T05:21:38;8.70;;;7.80;;
63492;SDS011;49638;47.526;10.028;2022-07-23T05:24:38;9.55;;;7.43;;
63492;SDS011;49638;47.526;10.028;2022-07-23T05:27:38;8.65;;;6.95;;
63492;SDS011;49638;47.526;10.028;2022-07-23T05:30:39;11.95;;;7.75;;
63492;SDS011;49638;47.526;10.028;2022-07-23T05:33:39;12.05;;;7.38;;
63492;SDS011;49638;47.526;10.028;2022-07-23T05:36:40;9.50;;;7.60;;
63492;SDS011;49638;47.526;10.028;2022-07-23T05:39:40;9.90;;;8.40;;
63492;SDS011;49638;47.526;10.028;2022-07-23T05:42:41;11.10;;;8.85;;
63492;SDS011;49638;47.526;10.028;2022-07-23T05:45:42;12.18;;;8.55;;
63492;SDS011;49638;47.526;10.028;2022-07-23T05:48:42;11.07;;;8.15;;
63492;SDS011;49638;47.526;10.028;2022-07-23T05:51:43;10.38;;;8.23;;
63492;SDS011;49638;47.526;10.028;2022-07-23T05:54:43;11.38;;;8.07;;
63492;SDS011;49638;47.526;10.028;2022-07-23T05:57:43;10.45;;;8.23;;
63492;SDS011;49638;47.526;10.028;2022-07-23T06:00:43;10.32;;;7.70;;
63492;SDS011;49638;47.526;10.028;2022-07-23T06:03:44;8.70;;;7.80;;
63492;SDS011;49638;47.526;10.028;2022-07-23T06:06:44;9.85;;;7.85;;
63492;SDS011;49638;47.526;10.028;2022-07-23T06:09:44;10.27;;;8.80;;
63492;SDS011;49638;47.526;10.028;2022-07-23T06:12:46;10.70;;;9.32;;
63492;SDS011;49638;47.526;10.028;2022-07-23T06:15:47;10.85;;;9.45;;
63492;SDS011;49638;47.526;10.028;2022-07-23T06:18:48;13.50;;;9.52;;
63492;SDS011;49638;47.526;10.028;2022-07-23T06:21:48;13.55;;;10.55;;
63492;SDS011;49638;47.526;10.028;2022-07-23T06:24:49;13.82;;;10.52;;
63492;SDS011;49638;47.526;10.028;2022-07-23T06:27:50;13.85;;;11.02;;
63492;SDS011;49638;47.526;10.028;2022-07-23T06:30:51;12.82;;;10.45;;
63492;SDS011;49638;47.526;10.028;2022-07-23T06:33:51;13.00;;;10.75;;
63492;SDS011;49638;47.526;10.028;2022-07-23T06:36:51;14.85;;;11.73;;
63492;SDS011;49638;47.526;10.028;2022-07-23T06:39:51;14.88;;;12.10;;
63492;SDS011;49638;47.526;10.028;2022-07-23T06:42:52;12.57;;;10.77;;
63492;SDS011;49638;47.526;10.028;2022-07-23T06:45:52;11.73;;;10.32;;
63492;SDS011;49638;47.526;10.028;2022-07-23T06:48:52;12.65;;;10.38;;
63492;SDS011;49638;47.526;10.028;2022-07-23T06:51:53;12.15;;;10.18;;
63492;SDS011;49638;47.526;10.028;2022-07-23T06:54:53;13.40;;;9.82;;
63492;SDS011;49638;47.526;10.028;2022-07-23T06:57:53;11.25;;;9.38;;
63492;SDS011;49638;47.526;10.028;2022-07-23T07:00:53;12.70;;;9.73;;
63492;SDS011;49638;47.526;10.028;2022-07-23T07:03:54;12.65;;;9.25;;
63492;SDS011;49638;47.526;10.028;2022-07-23T07:06:54;10.75;;;8.73;;
63492;SDS011;49638;47.526;10.028;2022-07-23T07:09:54;12.90;;;9.77;;
63492;SDS011;49638;47.526;10.028;2022-07-23T07:12:55;13.13;;;9.60;;
63492;SDS011;49638;47.526;10.028;2022-07-23T07:15:55;12.02;;;9.25;;
63492;SDS011;49638;47.526;10.028;2022-07-23T07:18:55;10.48;;;9.05;;
63492;SDS011;49638;47.526;10.028;2022-07-23T07:21:56;10.57;;;8.70;;
63492;SDS011;49638;47.526;10.028;2022-07-23T07:24:56;10.15;;;8.60;;
63492;SDS011;49638;47.526;10.028;2022-07-23T07:27:57;9.82;;;8.82;;
63492;SDS011;49638;47.526;10.028;2022-07-23T07:30:57;11.35;;;8.40;;
63492;SDS011;49638;47.526;10.028;2022-07-23T07:33:57;11.88;;;9.15;;
63492;SDS011;49638;47.526;10.028;2022-07-23T07:36:58;11.68;;;8.48;;
63492;SDS011;49638;47.526;10.028;2022-07-23T07:39:58;10.65;;;8.52;;
63492;SDS011;49638;47.526;10.028;2022-07-23T07:42:59;10.68;;;8.48;;
63492;SDS011;49638;47.526;10.028;2022-07-23T07:45:59;10.90;;;8.95;;
63492;SDS011;49638;47.526;10.028;2022-07-23T07:49:00;13.38;;;9.90;;
63492;SDS011;49638;47.526;10.028;2022-07-23T07:52:00;13.90;;;10.45;;
63492;SDS011;49638;47.526;10.028;2022-07-23T07:55:00;11.20;;;9.52;;
63492;SDS011;49638;47.526;10.028;2022-07-23T07:58:00;11.38;;;8.57;;
63492;SDS011;49638;47.526;10.028;2022-07-23T08:01:01;11.13;;;9.93;;
63492;SDS011;49638;47.526;10.028;2022-07-23T08:04:02;14.38;;;10.38;;
63492;SDS011;49638;47.526;10.028;2022-07-23T08:07:02;11.90;;;9.88;;
63492;SDS011;49638;47.526;10.028;2022-07-23T08:10:03;12.95;;;9.90;;
63492;SDS011;49638;47.526;10.028;2022-07-23T08:13:03;14.25;;;9.93;;
63492;SDS011;49638;47.526;10.028;2022-07-23T08:16:04;14.20;;;10.20;;
63492;SDS011;49638;47.526;10.028;2022-07-23T08:19:04;13.82;;;11.30;;
63492;SDS011;49638;47.526;10.028;2022-07-23T08:22:05;11.98;;;10.02;;
63492;SDS011;49638;47.526;10.028;2022-07-23T08:25:05;13.77;;;10.40;;
63492;SDS011;49638;47.526;10.028;2022-07-23T08:28:06;14.07;;;10.55;;
63492;SDS011;49638;47.526;10.028;2022-07-23T08:31:08;13.02;;;10.63;;
63492;SDS011;49638;47.526;10.028;2022-07-23T08:34:10;14.57;;;10.93;;
63492;SDS011;49638;47.526;10.028;2022-07-23T08:37:11;12.07;;;10.45;;
63492;SDS011;49638;47.526;10.028;2022-07-23T08:40:12;14.40;;;11.30;;
63492;SDS011;49638;47.526;10.028;2022-07-23T08:43:14;13.32;;;10.57;;
63492;SDS011;49638;47.526;10.028;2022-07-23T08:46:19;12.95;;;11.20;;
63492;SDS011;49638;47.526;10.028;2022-07-23T08:49:20;14.50;;;11.60;;
63492;SDS011;49638;47.526;10.028;2022-07-23T08:52:21;12.93;;;11.52;;
63492;SDS011;49638;47.526;10.028;2022-07-23T08:55:22;15.05;;;11.63;;
63492;SDS011;49638;47.526;10.028;2022-07-23T08:58:23;16.13;;;12.18;;
63492;SDS011;49638;47.526;10.028;2022-07-23T09:01:24;15.93;;;11.88;;
63492;SDS011;49638;47.526;10.028;2022-07-23T09:04:24;14.00;;;11.48;;
63492;SDS011;49638;47.526;10.028;2022-07-23T09:07:24;14.63;;;11.80;;
63492;SDS011;49638;47.526;10.028;2022-07-23T09:10:25;12.25;;;10.30;;
63492;SDS011;49638;47.526;10.028;2022-07-23T09:16:37;15.18;;;12.70;;
63492;SDS011;49638;47.526;10.028;2022-07-23T09:19:39;15.50;;;13.05;;
63492;SDS011;49638;47.526;10.028;2022-07-23T09:22:44;16.02;;;12.55;;
63492;SDS011;49638;47.526;10.028;2022-07-23T09:25:46;16.63;;;13.63;;
63492;SDS011;49638;47.526;10.028;2022-07-23T09:29:28;17.08;;;12.50;;
63492;SDS011;49638;47.526;10.028;2022-07-23T09:32:20;15.05;;;11.90;;
63492;SDS011;49638;47.526;10.028;2022-07-23T09:35:20;15.70;;;13.15;;
63492;SDS011;49638;47.526;10.028;2022-07-23T09:38:21;14.95;;;12.77;;
63492;SDS011;49638;47.526;10.028;2022-07-23T09:41:23;15.13;;;12.60;;
63492;SDS011;49638;47.526;10.028;2022-07-23T09:44:24;15.77;;;12.90;;
63492;SDS011;49638;47.526;10.028;2022-07-23T09:47:26;13.30;;;10.98;;
63492;SDS011;49638;47.526;10.028;2022-07-23T09:50:28;11.55;;;10.25;;
63492;SDS011;49638;47.526;10.028;2022-07-23T09:53:29;12.35;;;9.60;;
63492;SDS011;49638;47.526;10.028;2022-07-23T09:56:29;12.50;;;10.82;;
63492;SDS011;49638;47.526;10.028;2022-07-23T09:59:34;7.82;;;6.03;;
63492;SDS011;49638;47.526;10.028;2022-07-23T10:02:36;7.22;;;5.75;;
63492;SDS011;49638;47.526;10.028;2022-07-23T10:05:38;10.15;;;9.05;;
63492;SDS011;49638;47.526;10.028;2022-07-23T10:08:43;12.43;;;10.10;;
63492;SDS011;49638;47.526;10.028;2022-07-23T10:11:46;12.07;;;9.50;;
63492;SDS011;49638;47.526;10.028;2022-07-23T10:14:48;13.00;;;10.40;;
63492;SDS011;49638;47.526;10.028;2022-07-23T10:17:49;10.45;;;8.88;;
63492;SDS011;49638;47.526;10.028;2022-07-23T10:20:49;12.52;;;10.27;;
63492;SDS011;49638;47.526;10.028;2022-07-23T10:23:57;9.57;;;8.20;;
63492;SDS011;49638;47.526;10.028;2022-07-23T10:30:28;8.70;;;6.72;;
63492;SDS011;49638;47.526;10.028;2022-07-23T10:33:46;9.30;;;7.07;;
63492;SDS011;49638;47.526;10.028;2022-07-23T10:36:54;7.65;;;6.45;;
63492;SDS011;49638;47.526;10.028;2022-07-23T10:40:16;8.23;;;6.95;;
63492;SDS011;49638;47.526;10.028;2022-07-23T10:43:19;9.20;;;6.95;;
63492;SDS011;49638;47.526;10.028;2022-07-23T10:46:25;9.40;;;6.85;;
63492;SDS011;49638;47.526;10.028;2022-07-23T10:49:44;11.15;;;7.15;;
63492;SDS011;49638;47.526;10.028;2022-07-23T10:56:13;9.07;;;7.13;;
63492;SDS011;49638;47.526;10.028;2022-07-23T10:59:14;8.57;;;7.07;;
63492;SDS011;49638;47.526;10.028;2022-07-23T11:02:21;11.02;;;7.25;;
63492;SDS011;49638;47.526;10.028;2022-07-23T11:05:26;8.20;;;6.97;;
63492;SDS011;49638;47.526;10.028;2022-07-23T11:08:41;8.32;;;6.95;;
63492;SDS011;49638;47.526;10.028;2022-07-23T11:11:41;8.45;;;7.07;;
63492;SDS011;49638;47.526;10.028;2022-07-23T11:18:07;9.02;;;7.15;;
63492;SDS011;49638;47.526;10.028;2022-07-23T11:24:24;8.27;;;6.68;;
63492;SDS011;49638;47.526;10.028;2022-07-23T11:27:36;10.75;;;7.03;;
63492;SDS011;49638;47.526;10.028;2022-07-23T11:30:42;9.50;;;8.07;;
63492;SDS011;49638;47.526;10.028;2022-07-23T11:33:45;8.77;;;7.85;;
63492;SDS011;49638;47.526;10.028;2022-07-23T11:36:49;8.98;;;6.93;;
63492;SDS011;49638;47.526;10.028;2022-07-23T11:39:52;9.02;;;7.40;;
63492;SDS011;49638;47.526;10.028;2022-07-23T11:42:59;9.93;;;7.35;;
63492;SDS011;49638;47.526;10.028;2022-07-23T11:46:01;8.60;;;7.70;;
63492;SDS011;49638;47.526;10.028;2022-07-23T11:49:02;11.88;;;7.78;;
63492;SDS011;49638;47.526;10.028;2022-07-23T11:52:07;10.05;;;7.70;;
63492;SDS011;49638;47.526;10.028;2022-07-23T11:55:10;8.18;;;7.13;;
63492;SDS011;49638;47.526;10.028;2022-07-23T11:58:11;8.48;;;7.25;;
63492;SDS011;49638;47.526;10.028;2022-07-23T12:01:11;9.68;;;7.60;;
63492;SDS011;49638;47.526;10.028;2022-07-23T12:04:11;8.43;;;7.63;;
63492;SDS011;49638;47.526;10.028;2022-07-23T12:10:35;9.35;;;7.80;;
63492;SDS011;49638;47.526;10.028;2022-07-23T12:13:38;11.00;;;7.82;;
63492;SDS011;49638;47.526;10.028;2022-07-23T12:16:38;10.48;;;8.13;;
63492;SDS011;49638;47.526;10.028;2022-07-23T12:19:38;8.63;;;7.40;;
63492;SDS011;49638;47.526;10.028;2022-07-23T12:22:40;8.80;;;7.85;;
63492;SDS011;49638;47.526;10.028;2022-07-23T12:25:44;8.63;;;7.65;;
63492;SDS011;49638;47.526;10.028;2022-07-23T12:28:51;9.77;;;7.90;;
63492;SDS011;49638;47.526;10.028;2022-07-23T12:31:52;12.55;;;8.25;;
63492;SDS011;49638;47.526;10.028;2022-07-23T12:35:03;9.82;;;7.95;;
63492;SDS011;49638;47.526;10.028;2022-07-23T12:38:08;9.57;;;8.23;;
63492;SDS011;49638;47.526;10.028;2022-07-23T12:41:11;9.85;;;7.97;;
63492;SDS011;49638;47.526;10.028;2022-07-23T12:44:14;10.05;;;8.18;;
63492;SDS011;49638;47.526;10.028;2022-07-23T12:53:40;8.85;;;7.85;;
63492;SDS011;49638;47.526;10.028;2022-07-23T12:56:48;8.85;;;7.95;;
63492;SDS011;49638;47.526;10.028;2022-07-23T12:59:48;9.23;;;8.18;;
63492;SDS011;49638;47.526;10.028;2022-07-23T13:02:48;9.13;;;7.57;;
63492;SDS011;49638;47.526;10.028;2022-07-23T13:05:49;8.90;;;7.97;;
63492;SDS011;49638;47.526;10.028;2022-07-23T13:08:49;9.15;;;7.65;;
63492;SDS011;49638;47.526;10.028;2022-07-23T13:11:50;9.05;;;8.15;;
63492;SDS011;49638;47.526;10.028;2022-07-23T13:14:51;10.70;;;8.35;;
63492;SDS011;49638;47.526;10.028;2022-07-23T13:17:51;9.38;;;8.38;;
63492;SDS011;49638;47.526;10.028;2022-07-23T13:20:51;9.77;;;8.13;;
63492;SDS011;49638;47.526;10.028;2022-07-23T13:23:52;9.88;;;8.88;;
63492;SDS011;49638;47.526;10.028;2022-07-23T13:26:53;9.68;;;7.75;;
63492;SDS011;49638;47.526;10.028;2022-07-23T13:29:53;9.15;;;8.25;;
63492;SDS011;49638;47.526;10.028;2022-07-23T13:32:54;10.15;;;8.20;;
63492;SDS011;49638;47.526;10.028;2022-07-23T13:35:54;11.05;;;8.07;;
63492;SDS011;49638;47.526;10.028;2022-07-23T13:38:54;8.55;;;7.65;;
63492;SDS011;49638;47.526;10.028;2022-07-23T13:41:56;8.95;;;8.02;;
63492;SDS011;49638;47.526;10.028;2022-07-23T13:44:56;10.80;;;7.43;;
63492;SDS011;49638;47.526;10.028;2022-07-23T13:47:56;9.32;;;8.32;;
63492;SDS011;49638;47.526;10.028;2022-07-23T13:50:57;8.55;;;7.70;;
63492;SDS011;49638;47.526;10.028;2022-07-23T13:53:57;12.43;;;8.52;;
63492;SDS011;49638;47.526;10.028;2022-07-23T13:56:59;12.27;;;8.25;;
63492;SDS011;49638;47.526;10.028;2022-07-23T13:59:59;9.73;;;8.55;;
63492;SDS011;49638;47.526;10.028;2022-07-23T14:03:00;10.60;;;8.57;;
63492;SDS011;49638;47.526;10.028;2022-07-23T14:06:01;9.23;;;8.07;;
63492;SDS011;49638;47.526;10.028;2022-07-23T14:09:02;9.25;;;8.30;;
63492;SDS011;49638;47.526;10.028;2022-07-23T14:12:02;9.65;;;8.00;;
63492;SDS011;49638;47.526;10.028;2022-07-23T14:15:04;9.45;;;8.27;;
63492;SDS011;49638;47.526;10.028;2022-07-23T14:18:06;10.18;;;9.18;;
63492;SDS011;49638;47.526;10.028;2022-07-23T14:21:07;10.10;;;8.13;;
63492;SDS011;49638;47.526;10.028;2022-07-23T14:24:07;12.43;;;9.27;;
63492;SDS011;49638;47.526;10.028;2022-07-23T14:27:08;9.50;;;8.50;;
63492;SDS011;49638;47.526;10.028;2022-07-23T14:30:09;10.07;;;8.68;;
63492;SDS011;49638;47.526;10.028;2022-07-23T14:33:10;10.43;;;8.75;;
63492;SDS011;49638;47.526;10.028;2022-07-23T14:36:10;10.60;;;8.70;;
63492;SDS011;49638;47.526;10.028;2022-07-23T14:39:10;10.48;;;8.55;;
63492;SDS011;49638;47.526;10.028;2022-07-23T14:42:12;10.05;;;8.52;;
63492;SDS011;49638;47.526;10.028;2022-07-23T14:45:12;10.20;;;8.63;;
63492;SDS011;49638;47.526;10.028;2022-07-23T14:48:13;9.48;;;8.48;;
63492;SDS011;49638;47.526;10.028;2022-07-23T14:51:13;8.88;;;8.07;;
63492;SDS011;49638;47.526;10.028;2022-07-23T14:54:13;9.75;;;8.40;;
63492;SDS011;49638;47.526;10.028;2022-07-23T14:57:14;9.98;;;8.73;;
63492;SDS011;49638;47.526;10.028;2022-07-23T15:00:14;10.15;;;8.13;;
63492;SDS011;49638;47.526;10.028;2022-07-23T15:03:15;10.52;;;8.57;;
63492;SDS011;49638;47.526;10.028;2022-07-23T15:06:16;11.85;;;9.13;;
63492;SDS011;49638;47.526;10.028;2022-07-23T15:09:17;9.75;;;8.65;;
63492;SDS011;49638;47.526;10.028;2022-07-23T15:12:17;11.85;;;9.27;;
63492;SDS011;49638;47.526;10.028;2022-07-23T15:15:18;12.10;;;9.07;;
63492;SDS011;49638;47.526;10.028;2022-07-23T15:18:18;11.57;;;9.40;;
63492;SDS011;49638;47.526;10.028;2022-07-23T15:21:18;11.75;;;9.48;;
63492;SDS011;49638;47.526;10.028;2022-07-23T15:24:19;10.38;;;9.32;;
63492;SDS011;49638;47.526;10.028;2022-07-23T15:27:19;11.15;;;9.80;;
63492;SDS011;49638;47.526;10.028;2022-07-23T15:30:19;10.10;;;9.10;;
63492;SDS011;49638;47.526;10.028;2022-07-23T15:33:20;11.07;;;9.25;;
63492;SDS011;49638;47.526;10.028;2022-07-23T15:36:20;18.55;;;9.80;;
63492;SDS011;49638;47.526;10.028;2022-07-23T15:39:20;10.23;;;9.13;;
63492;SDS011;49638;47.526;10.028;2022-07-23T15:42:20;12.60;;;9.52;;
63492;SDS011;49638;47.526;10.028;2022-07-23T15:45:21;12.07;;;9.70;;
63492;SDS011;49638;47.526;10.028;2022-07-23T15:48:21;9.82;;;8.82;;
63492;SDS011;49638;47.526;10.028;2022-07-23T15:51:22;11.32;;;9.30;;
63492;SDS011;49638;47.526;10.028;2022-07-23T15:54:22;10.27;;;9.07;;
63492;SDS011;49638;47.526;10.028;2022-07-23T15:57:23;10.30;;;9.20;;
63492;SDS011;49638;47.526;10.028;2022-07-23T16:00:23;10.43;;;9.30;;
63492;SDS011;49638;47.526;10.028;2022-07-23T16:03:24;12.48;;;9.73;;
63492;SDS011;49638;47.526;10.028;2022-07-23T16:06:24;12.05;;;9.50;;
63492;SDS011;49638;47.526;10.028;2022-07-23T16:09:25;10.07;;;8.55;;
63492;SDS011;49638;47.526;10.028;2022-07-23T16:12:25;11.38;;;9.48;;
63492;SDS011;49638;47.526;10.028;2022-07-23T16:15:26;9.95;;;8.80;;
63492;SDS011;49638;47.526;10.028;2022-07-23T16:18:26;12.93;;;9.75;;
63492;SDS011;49638;47.526;10.028;2022-07-23T16:21:27;10.73;;;9.02;;
63492;SDS011;49638;47.526;10.028;2022-07-23T16:24:27;11.60;;;9.35;;
63492;SDS011;49638;47.526;10.028;2022-07-23T16:27:28;11.07;;;8.90;;
63492;SDS011;49638;47.526;10.028;2022-07-23T16:30:28;11.38;;;9.05;;
63492;SDS011;49638;47.526;10.028;2022-07-23T16:33:28;10.98;;;9.52;;
63492;SDS011;49638;47.526;10.028;2022-07-23T16:36:29;11.82;;;9.60;;
63492;SDS011;49638;47.526;10.028;2022-07-23T16:39:29;11.32;;;9.85;;
63492;SDS011;49638;47.526;10.028;2022-07-23T16:42:30;13.00;;;9.43;;
63492;SDS011;49638;47.526;10.028;2022-07-23T16:45:30;11.35;;;9.80;;
63492;SDS011;49638;47.526;10.028;2022-07-23T16:48:30;12.90;;;10.18;;
63492;SDS011;49638;47.526;10.028;2022-07-23T16:51:31;10.75;;;9.18;;
63492;SDS011;49638;47.526;10.028;2022-07-23T16:54:31;12.48;;;10.25;;
63492;SDS011;49638;47.526;10.028;2022-07-23T16:57:31;11.45;;;9.70;;
63492;SDS011;49638;47.526;10.028;2022-07-23T17:00:32;12.32;;;9.90;;
63492;SDS011;49638;47.526;10.028;2022-07-23T17:03:32;13.98;;;9.52;;
63492;SDS011;49638;47.526;10.028;2022-07-23T17:06:33;11.93;;;9.33;;
63492;SDS011;49638;47.526;10.028;2022-07-23T17:09:35;11.88;;;9.23;;
63492;SDS011;49638;47.526;10.028;2022-07-23T17:12:35;12.80;;;9.55;;
63492;SDS011;49638;47.526;10.028;2022-07-23T17:15:36;10.15;;;9.15;;
63492;SDS011;49638;47.526;10.028;2022-07-23T17:18:37;10.48;;;9.38;;
63492;SDS011;49638;47.526;10.028;2022-07-23T17:21:37;10.70;;;9.60;;
63492;SDS011;49638;47.526;10.028;2022-07-23T17:24:38;10.68;;;9.13;;
63492;SDS011;49638;47.526;10.028;2022-07-23T17:27:38;10.77;;;9.43;;
63492;SDS011;49638;47.526;10.028;2022-07-23T17:30:42;10.05;;;9.05;;
63492;SDS011;49638;47.526;10.028;2022-07-23T17:33:42;10.68;;;9.13;;
63492;SDS011;49638;47.526;10.028;2022-07-23T17:36:43;12.20;;;9.10;;
63492;SDS011;49638;47.526;10.028;2022-07-23T17:39:43;9.52;;;8.52;;
63492;SDS011;49638;47.526;10.028;2022-07-23T17:42:44;10.13;;;8.85;;
63492;SDS011;49638;47.526;10.028;2022-07-23T17:45:44;10.68;;;9.48;;
63492;SDS011;49638;47.526;10.028;2022-07-23T17:48:44;10.63;;;9.38;;
63492;SDS011;49638;47.526;10.028;2022-07-23T17:51:45;12.07;;;9.48;;
63492;SDS011;49638;47.526;10.028;2022-07-23T17:54:45;12.55;;;9.60;;
63492;SDS011;49638;47.526;10.028;2022-07-23T17:57:45;11.27;;;9.68;;
63492;SDS011;49638;47.526;10.028;2022-07-23T18:00:46;11.70;;;9.93;;
63492;SDS011;49638;47.526;10.028;2022-07-23T18:03:46;13.10;;;10.30;;
63492;SDS011;49638;47.526;10.028;2022-07-23T18:06:49;12.05;;;10.50;;